Latest Weather Observations for Richmond

IDN60901

Issued at 11:21 am EST Thursday 27 April 2017 (issued every 10 minutes, with the page automatically refreshed every 10 minutes)

About weather observations | Map of Sydney area stations | Latest observations for Sydney area | Other Formats
Station Details ID: 067105 Name: RICHMOND RAAF Lat: -33.60 Lon: 150.78 Height: 19.0 m
Data from the previous 72 hours. | See also: Recent months at Richmond
Date/Time
EST
Temp
°C
App
Temp
°C
Dew
Point
°C
Rel
Hum
%
Delta-T
°C
Wind Press
QNH
hPa
Press
MSL
hPa
Rain since
9am
mm
Dir  Spd
km/h
Gust
km/h
Spd
kts
Gust
kts
27/11:00am 16.9 11.8 4.3 43 5.9 SSW 20 30 11 16 1015.8 1015.8 0.0
27/10:30am 16.9 12.7 5.5 47 5.5 SSW 17 24 9 13 1016.0 1016.0 0.0
27/10:00am 15.7 12.2 7.0 56 4.3 SW 15 20 8 11 1016.0 1016.0 0.0
27/09:30am 14.3 11.6 7.4 63 3.4 SW 11 17 6 9 1016.3 1016.3 0.0
27/09:00am 12.9 12.3 8.8 76 2.1 WNW 2 7 1 4 1016.4 1016.4 1.4
27/08:30am 11.8 11.2 7.5 75 2.1 CALM 0 0 0 0 1016.1 1016.1 1.4
27/08:00am 11.2 10.7 7.9 80 1.6 CALM 0 0 0 0 1015.8 1015.8 1.4
27/07:30am 10.6 8.7 6.6 76 1.9 SW 6 7 3 4 1015.3 1015.3 1.4
27/07:00am 9.0 8.1 6.1 82 1.3 CALM 0 0 0 0 1014.6 1014.6 1.4
27/06:30am 9.8 7.7 6.0 77 1.8 SSW 6 7 3 4 1014.0 1014.0 1.4
27/06:00am 10.2 8.1 5.8 74 2.0 S 6 9 3 5 1013.7 1013.7 1.4
27/05:30am 10.5 9.2 6.1 74 2.0 SSE 2 7 1 4 1013.3 1013.3 1.4
27/05:00am 11.0 9.6 5.7 70 2.5 S 2 6 1 3 1012.9 1012.9 1.4
27/04:30am 11.4 9.3 5.9 69 2.6 SSW 6 9 3 5 1012.4 1012.4 1.4
27/04:00am 11.7 9.1 6.0 68 2.7 SSW 9 11 5 6 1012.2 1012.2 1.4
27/03:30am 12.2 9.8 6.9 70 2.5 S 9 11 5 6 1012.0 1012.0 1.4
27/03:00am 12.4 10.3 8.1 75 2.1 S 9 11 5 6 1012.0 1012.0 1.4
27/02:30am 12.2 11.9 8.5 78 1.8 CALM 0 0 0 0 1012.1 1012.1 1.4
27/02:00am 12.8 11.3 8.5 75 2.1 S 6 9 3 5 1012.0 1012.0 1.4
27/01:30am 13.0 11.5 9.3 78 1.9 S 7 9 4 5 1012.0 1012.0 1.4
27/01:00am 13.2 11.8 8.9 75 2.2 W 6 7 3 4 1012.0 1012.0 1.4
27/12:30am 12.8 10.8 8.5 75 2.1 WNW 9 11 5 6 1011.7 1011.7 1.4
27/12:00am 12.8 11.3 9.1 78 1.9 WNW 7 9 4 5 1011.5 1011.5 1.4
 
Date/Time
EST
Temp
°C
App
Temp
°C
Dew
Point
°C
Rel
Hum
%
Delta-T
°C
Wind Press
QNH
hPa
Press
MSL
hPa
Rain since
9am
mm
Dir  Spd
km/h
Gust
km/h
Spd
kts
Gust
kts
26/11:30pm 12.6 11.2 9.4 81 1.6 W 7 11 4 6 1011.3 1011.3 1.4
26/11:00pm 12.9 11.7 9.4 79 1.8 W 6 9 3 5 1011.2 1011.2 1.4
26/10:30pm 13.1 12.6 8.0 71 2.5 CALM 0 0 0 0 1011.3 1011.3 1.4
26/10:00pm 12.6 11.2 8.9 78 1.9 ENE 6 7 3 4 1011.0 1011.0 1.4
26/09:30pm 12.6 11.7 7.7 72 2.4 NE 2 9 1 5 1010.4 1010.4 1.4
26/09:00pm 12.9 12.3 7.6 70 2.6 CALM 0 4 0 2 1010.0 1010.0 1.4
26/08:30pm 12.9 12.1 6.3 64 3.1 CALM 0 0 0 0 1009.2 1009.2 1.4
26/08:00pm 12.2 9.6 6.0 66 2.9 WSW 9 13 5 7 1008.8 1008.8 1.4
26/07:30pm 13.5 11.1 5.4 58 3.8 WSW 7 11 4 6 1008.6 1008.6 1.4
26/07:00pm 13.9 11.6 5.8 58 3.8 SW 7 11 4 6 1008.3 1008.3 1.4
26/06:30pm 13.6 9.6 6.5 62 3.4 W 17 22 9 12 1007.9 1007.8 1.4
26/06:00pm 12.9 10.2 7.4 69 2.7 WNW 11 20 6 11 1007.0 1006.9 1.4
26/05:30pm 14.2 13.7 7.7 65 3.2 CALM 0 0 0 0 1006.0 1005.9 1.4
26/05:00pm 15.5 14.7 8.3 62 3.7 N 2 7 1 4 1005.2 1005.1 1.4
26/04:30pm 14.9 14.4 9.3 69 2.9 ENE 2 7 1 4 1005.7 1005.6 1.4
26/04:00pm 14.5 12.9 8.9 69 2.9 W 7 13 4 7 1006.0 1005.9 1.4
26/03:30pm 14.0 10.7 9.4 74 2.4 WSW 17 28 9 15 1006.4 1006.3 1.4
26/03:00pm 14.4 11.7 10.4 77 2.1 W 15 24 8 13 1005.5 1005.4 1.4
26/02:30pm 14.4 5.7 9.8 74 2.4 W 46 69 25 37 1005.1 1005.0 0.6
26/02:23pm 15.5 5.2 8.3 62 3.6 W 52 76 28 41 1004.6 1004.5 0.0
26/02:19pm 18.0 10.5 6.5 47 5.7 WNW 35 76 19 41 1004.1 1004.0 0.0
26/02:16pm 19.7 15.3 6.4 42 6.7 WNW 19 65 10 35 1004.0 1003.9 0.0
26/02:00pm 22.0 18.3 7.8 40 7.4 W 17 22 9 12 1003.1 1003.0 0.0
26/01:30pm 21.9 17.9 9.1 44 6.8 NW 20 32 11 17 1003.0 1002.9 0.0
26/01:00pm 22.5 17.8 7.9 39 7.7 WNW 22 39 12 21 1002.7 1002.6 0.0
26/12:30pm 23.8 19.1 6.1 32 9.0 NW 20 35 11 19 1003.0 1002.9 0.0
26/12:00pm 24.0 19.2 7.2 34 8.8 WNW 22 32 12 17 1003.6 1003.5 0.0
26/11:30am 23.9 19.6 7.1 34 8.7 W 19 30 10 16 1004.5 1004.4 0.0
26/11:00am 23.6 18.3 6.8 34 8.7 W 24 32 13 17 1005.0 1004.9 0.0
26/10:30am 23.7 19.9 8.9 39 8.0 WNW 19 24 10 13 1005.6 1005.5 0.0
26/10:00am 22.7 18.3 8.8 41 7.4 WNW 22 28 12 15 1006.0 1005.9 0.0
26/09:30am 22.1 17.9 9.6 45 6.7 NW 22 33 12 18 1006.4 1006.3 0.0
26/09:00am 20.5 19.2 12.5 60 4.5 NNE 11 15 6 8 1006.8 1006.7 0.0
26/08:30am 19.5 18.8 14.3 72 3.0 NE 11 15 6 8 1007.0 1006.9 0.0
26/08:00am 17.2 17.2 14.1 82 1.8 NNE 7 9 4 5 1007.1 1007.0 0.0
26/07:30am 15.5 16.5 14.4 93 0.6 NNE 2 7 1 4 1007.3 1007.2 0.0
26/07:00am 13.7 14.4 13.4 98 0.2 N 2 9 1 5 1007.2 1007.1 0.0
26/06:30am 13.2 13.6 12.6 96 0.3 NNE 2 9 1 5 1007.1 1007.0 0.0
26/06:00am 13.8 13.3 12.7 93 0.6 ESE 7 11 4 6 1007.2 1007.1 0.0
26/05:30am 14.7 14.6 13.4 92 0.7 NNW 6 15 3 8 1007.1 1007.0 0.0
26/05:00am 14.8 14.0 14.0 95 0.5 NNW 11 13 6 7 1007.1 1007.0 0.0
26/04:30am 15.2 14.4 13.9 92 0.7 NNW 11 13 6 7 1006.9 1006.8 0.0
26/04:00am 14.8 14.2 13.5 92 0.7 NW 9 13 5 7 1006.9 1006.8 0.0
26/03:30am 15.8 15.3 13.8 88 1.1 NNW 9 11 5 6 1007.0 1006.9 0.0
26/03:00am 17.0 16.3 14.3 84 1.5 N 11 13 6 7 1007.2 1007.1 0.0
26/02:30am 17.7 17.6 15.0 84 1.6 N 9 11 5 6 1007.6 1007.5 0.0
26/02:00am 18.3 18.3 15.2 82 1.8 N 9 11 5 6 1007.8 1007.7 0.0
26/01:30am 18.2 18.3 15.6 85 1.5 N 9 13 5 7 1008.1 1008.1 0.0
26/01:00am 17.8 17.3 15.8 88 1.2 N 13 15 7 8 1008.0 1008.0 0.0
26/12:30am 17.7 18.0 16.0 90 1.0 NNW 9 11 5 6 1008.1 1008.1 0.0
26/12:00am 16.4 16.5 14.4 88 1.1 N 7 9 4 5 1008.2 1008.2 0.0
 
Date/Time
EST
Temp
°C
App
Temp
°C
Dew
Point
°C
Rel
Hum
%
Delta-T
°C
Wind Press
QNH
hPa
Press
MSL
hPa
Rain since
9am
mm
Dir  Spd
km/h
Gust
km/h
Spd
kts
Gust
kts
25/11:30pm 17.4 19.0 14.9 85 1.4 CALM 0 0 0 0 1008.2 1008.2 0.0
25/11:00pm 19.3 19.8 15.6 79 2.2 N 7 11 4 6 1008.4 1008.4 0.0
25/10:30pm 19.5 19.3 15.6 78 2.3 N 11 13 6 7 1008.3 1008.3 0.0
25/10:00pm 19.7 20.3 15.8 78 2.3 N 7 9 4 5 1008.6 1008.6 0.0
25/09:30pm 19.8 19.7 15.9 78 2.3 NNE 11 15 6 8 1008.6 1008.6 0.0
25/09:00pm 19.9 19.4 16.0 78 2.3 NNE 13 17 7 9 1008.8 1008.8 0.0
25/08:30pm 19.6 19.2 16.1 80 2.1 N 13 19 7 10 1008.6 1008.6 0.0
25/08:00pm 20.0 19.7 16.4 80 2.2 NNE 13 19 7 10 1008.6 1008.6 0.0
25/07:30pm 19.5 19.4 16.9 85 1.6 NE 13 17 7 9 1008.4 1008.4 0.0
25/07:00pm 19.7 20.0 16.9 84 1.7 NE 11 15 6 8 1008.6 1008.6 0.0
25/06:30pm 19.8 19.7 17.0 84 1.7 NNE 13 17 7 9 1008.5 1008.5 0.0
25/06:00pm 20.0 19.1 16.8 82 1.9 NNE 17 22 9 12 1008.4 1008.4 0.0
25/05:30pm 20.2 18.8 17.0 82 1.9 NNE 20 32 11 17 1008.5 1008.5 0.0
25/05:00pm 20.6 19.4 17.0 80 2.2 NNE 19 24 10 13 1008.7 1008.7 0.0
25/04:30pm 20.9 20.4 16.9 78 2.4 NNE 15 20 8 11 1008.4 1008.4 0.0
25/04:00pm 21.1 19.6 16.7 76 2.7 NNE 20 26 11 14 1008.3 1008.3 0.0
25/03:30pm 21.3 20.3 16.7 75 2.8 NNE 17 22 9 12 1008.3 1008.3 0.0
25/03:00pm 22.5 21.1 15.6 65 4.1 N 17 24 9 13 1008.3 1008.3 0.0
25/02:30pm 23.2 21.2 15.0 60 4.9 NW 19 24 10 13 1008.8 1008.8 0.0
25/02:00pm 24.6 22.8 14.4 53 6.1 W 17 24 9 13 1008.7 1008.7 0.0
25/01:30pm 24.9 23.8 14.4 52 6.2 WNW 13 17 7 9 1008.8 1008.8 0.0
25/01:00pm 25.1 23.2 14.3 51 6.4 NNW 17 24 9 13 1009.1 1009.1 0.0
25/12:30pm 25.2 24.4 15.2 54 6.0 N 13 19 7 10 1009.7 1009.7 0.0
25/12:00pm 26.1 25.2 15.8 53 6.3 NNE 15 20 8 11 1010.4 1010.4 0.0
25/11:30am 24.8 23.3 15.4 56 5.7 N 17 24 9 13 1011.0 1011.0 0.0
25/11:00am 24.5 23.2 15.7 58 5.3 NNE 17 22 9 12 1011.6 1011.6 0.0
25/10:30am 23.5 23.0 16.8 66 4.1 NE 15 20 8 11 1012.4 1012.4 0.0
25/10:00am 21.5 20.7 16.0 71 3.3 NNE 15 20 8 11 1012.9 1012.9 0.0
25/09:30am 20.1 20.4 15.9 77 2.5 NE 9 11 5 6 1013.5 1013.5 0.0
25/09:00am 19.7 20.8 17.1 85 1.6 NNE 7 11 4 6 1013.9 1013.9 0.0
25/08:30am 17.6 18.8 17.3 98 0.2 NE 7 11 4 6 1013.9 1013.9 0.0
25/08:00am 17.0 19.3 16.8 99 0.1 CALM 0 0 0 0 1014.5 1014.5 0.0
25/07:30am 16.4 18.5 16.2 99 0.1 CALM 0 0 0 0 1014.3 1014.3 0.0
25/07:00am 16.0 17.9 15.8 99 0.1 CALM 0 0 0 0 1014.4 1014.4 0.0
25/06:57am 16.0 17.9 15.8 99 0.1 CALM 0 0 0 0 1014.4 1014.4 0.0
25/06:38am 15.3 17.0 15.1 99 0.1 CALM 0 0 0 0 1014.3 1014.3 0.0
25/06:30am 15.4 17.1 15.2 99 0.1 CALM 0 0 0 0 1014.3 1014.3 0.0
25/06:28am 15.4 17.1 15.2 99 0.1 CALM 0 0 0 0 1014.4 1014.4 0.0
25/06:00am 15.4 16.3 15.2 99 0.1 N 4 9 2 5 1014.2 1014.2 0.0
25/05:53am 15.5 17.2 15.3 99 0.1 CALM 0 0 0 0 1014.1 1014.1 0.0
25/05:30am 15.8 17.6 15.5 98 0.2 CALM 0 0 0 0 1014.3 1014.3 0.0
25/05:00am 16.0 17.9 15.8 99 0.1 CALM 0 0 0 0 1014.4 1014.4 0.0
25/04:30am 15.7 17.5 15.4 98 0.2 CALM 0 0 0 0 1014.5 1014.5 0.0
25/04:16am 15.8 17.6 15.5 98 0.2 CALM 0 0 0 0 1014.6 1014.6 0.0
25/04:00am 16.1 18.0 15.8 98 0.2 CALM 0 0 0 0 1014.5 1014.5 0.0
25/03:39am 16.2 18.2 15.9 98 0.2 CALM 0 0 0 0 1014.9 1014.9 0.0
25/03:30am 16.2 18.2 15.9 98 0.2 CALM 0 0 0 0 1015.0 1015.0 0.0
25/03:00am 16.9 18.9 16.1 95 0.5 CALM 0 0 0 0 1015.0 1015.0 0.0
25/02:30am 17.4 19.3 16.6 95 0.5 NE 2 6 1 3 1015.4 1015.4 0.0
25/02:00am 17.6 18.5 16.6 94 0.6 ENE 7 9 4 5 1015.9 1015.9 0.0
25/01:30am 17.7 18.9 16.9 95 0.5 NNE 6 9 3 5 1016.4 1016.4 0.0
25/01:00am 17.6 18.3 17.0 96 0.4 ENE 9 13 5 7 1016.5 1016.5 0.0
25/12:30am 17.2 18.0 16.4 95 0.5 NE 7 9 4 5 1017.2 1017.2 0.0
25/12:00am 17.5 18.1 16.7 95 0.5 NNE 9 13 5 7 1017.6 1017.6 0.0
 
Date/Time
EST
Temp
°C
App
Temp
°C
Dew
Point
°C
Rel
Hum
%
Delta-T
°C
Wind Press
QNH
hPa
Press
MSL
hPa
Rain since
9am
mm
Dir  Spd
km/h
Gust
km/h
Spd
kts
Gust
kts
24/11:30pm 16.8 17.7 16.0 95 0.5 NNE 6 9 3 5 1017.7 1017.7 0.0
24/11:00pm 17.9 20.1 16.4 91 0.9 CALM 0 0 0 0 1018.1 1018.1 0.0
24/10:30pm 18.2 19.2 16.4 89 1.1 NE 6 7 3 4 1018.3 1018.3 0.0
24/10:00pm 18.6 19.5 16.6 88 1.2 ENE 7 9 4 5 1018.8 1018.8 0.0
24/09:30pm 18.6 19.2 16.8 89 1.1 NE 9 11 5 6 1018.8 1018.8 0.0
24/09:00pm 18.9 21.2 16.7 87 1.3 CALM 0 0 0 0 1019.1 1019.1 0.0
24/08:30pm 18.9 20.7 16.5 86 1.4 NE 2 6 1 3 1019.0 1019.0 0.0
24/08:00pm 19.2 20.1 16.6 85 1.6 NNE 7 9 4 5 1018.7 1018.7 0.0
24/07:30pm 19.3 21.5 16.5 84 1.7 CALM 0 6 0 3 1018.6 1018.6 0.0
24/07:00pm 19.7 19.8 16.5 82 1.9 NE 11 15 6 8 1018.5 1018.5 0.0
24/06:30pm 20.0 20.4 16.2 79 2.3 E 9 13 5 7 1018.3 1018.3 0.0
24/06:00pm 20.3 20.2 15.9 76 2.6 ENE 11 17 6 9 1018.0 1018.0 0.0
24/05:30pm 20.7 20.6 15.0 70 3.4 NE 9 19 5 10 1017.7 1017.7 0.0
24/05:00pm 21.9 21.9 14.3 62 4.4 NE 7 9 4 5 1017.7 1017.7 0.0
24/04:30pm 22.4 22.6 14.3 60 4.8 NE 6 7 3 4 1017.5 1017.5 0.0
24/04:00pm 23.0 22.8 13.5 55 5.5 NNE 7 11 4 6 1017.6 1017.6 0.0
24/03:30pm 24.3 22.6 12.6 48 6.7 NNE 13 17 7 9 1017.7 1017.7 0.0
24/03:00pm 24.8 23.8 13.4 49 6.6 NNE 11 17 6 9 1017.7 1017.7 0.0
24/02:30pm 25.0 24.2 13.9 50 6.5 NNE 11 17 6 9 1018.0 1018.0 0.0
24/02:00pm 24.6 23.9 14.4 53 6.0 NNE 11 22 6 12 1018.3 1018.3 0.0
24/01:30pm 24.5 24.1 15.1 55 5.6 NE 11 19 6 10 1018.7 1018.7 0.0
24/01:00pm 24.4 24.3 15.9 59 5.2 E 11 20 6 11 1019.1 1019.1 0.0
24/12:30pm 23.7 23.4 15.5 60 4.9 ENE 11 17 6 9 1019.8 1019.8 0.0
24/12:00pm 23.0 22.5 14.8 60 4.9 NE 11 15 6 8 1020.5 1020.5 0.0
24/11:30am 22.3 22.9 15.9 67 3.9 NNE 7 13 4 7 1021.2 1021.2 0.0

Latest Capital City Observations: Canberra | Sydney | Melbourne | Brisbane | Adelaide | Perth | Hobart | Darwin

Other Formats:

Comma delimited format used in spreadsheet applications
http://www.bom.gov.au/fwo/IDN60901/IDN60901.95753.axf

JavaScript Object Notation format (JSON) in row-major order
http://www.bom.gov.au/fwo/IDN60901/IDN60901.95753.json